createdAt,value
2022-10-11T00:01:38.048Z,13.16
2022-10-11T00:06:39.971Z,12.95
2022-10-11T00:11:41.996Z,12.80
2022-10-11T00:16:44.566Z,12.49
2022-10-11T00:21:46.642Z,12.18
2022-10-11T00:26:48.233Z,11.95
2022-10-11T00:31:49.882Z,11.80
2022-10-11T00:36:51.498Z,11.66
2022-10-11T00:41:53.090Z,11.54
2022-10-11T00:47:03.154Z,11.47
2022-10-11T00:52:12.593Z,11.34
2022-10-11T00:57:20.440Z,11.28
2022-10-11T01:02:23.667Z,11.16
2022-10-11T01:07:31.172Z,11.13
2022-10-11T01:12:36.088Z,11.16
2022-10-11T01:17:50.085Z,10.95
2022-10-11T01:23:19.292Z,10.79
2022-10-11T01:28:42.562Z,10.72
2022-10-11T01:34:03.361Z,10.48
2022-10-11T01:39:13.424Z,10.38
2022-10-11T01:44:15.731Z,10.11
2022-10-11T01:49:18.077Z,9.96
2022-10-11T01:55:08.583Z,9.81
2022-10-11T02:00:15.183Z,9.72
2022-10-11T02:05:25.816Z,9.63
2022-10-11T02:10:34.903Z,9.48
2022-10-11T02:15:40.287Z,9.48
2022-10-11T02:20:44.211Z,9.37
2022-10-11T02:25:47.819Z,9.26
2022-10-11T02:30:52.118Z,9.09
2022-10-11T02:36:00.416Z,8.88
2022-10-11T02:41:09.946Z,8.82
2022-10-11T02:46:12.845Z,8.79
2022-10-11T02:51:14.798Z,8.65
2022-10-11T02:56:16.393Z,8.58
2022-10-11T03:01:18.335Z,8.52
2022-10-11T03:06:19.972Z,8.54
2022-10-11T03:11:21.574Z,8.42
2022-10-11T03:16:23.170Z,8.23
2022-10-11T03:21:25.281Z,8.18
2022-10-11T03:26:27.506Z,8.05
2022-10-11T03:31:29.187Z,8.00
2022-10-11T03:36:30.977Z,7.82
2022-10-11T03:41:32.653Z,7.80
2022-10-11T03:46:34.332Z,7.70
2022-10-11T03:51:36.520Z,7.59
2022-10-11T03:56:38.072Z,7.56
2022-10-11T04:01:39.694Z,7.56
2022-10-11T04:06:41.426Z,7.54
2022-10-11T04:11:43.012Z,7.46
2022-10-11T04:16:44.714Z,7.33
2022-10-11T04:21:46.309Z,7.30
2022-10-11T04:26:48.596Z,7.06
2022-10-11T04:31:50.538Z,7.12
2022-10-11T04:36:52.385Z,6.94
2022-10-11T04:41:53.981Z,6.89
2022-10-11T04:46:55.743Z,6.89
2022-10-11T04:51:57.366Z,6.82
2022-10-11T04:56:58.944Z,6.77
2022-10-11T05:02:00.674Z,6.78
2022-10-11T05:07:02.585Z,6.79
2022-10-11T05:12:04.458Z,6.77
2022-10-11T05:17:06.057Z,6.73
2022-10-11T05:22:07.766Z,6.66
2022-10-11T05:27:09.361Z,6.50
2022-10-11T05:32:11.037Z,6.39
2022-10-11T05:37:12.636Z,6.01
2022-10-11T05:42:14.281Z,6.00
2022-10-11T05:47:15.840Z,6.01
2022-10-11T05:52:21.586Z,5.96
2022-10-11T05:57:23.370Z,5.89
2022-10-11T06:02:25.100Z,5.93
2022-10-11T06:07:26.904Z,5.95
2022-10-11T06:12:31.669Z,6.01
2022-10-11T06:17:33.751Z,6.05
2022-10-11T06:22:35.479Z,6.15
2022-10-11T06:27:37.345Z,6.23
2022-10-11T06:32:38.960Z,6.35
2022-10-11T06:37:40.795Z,6.43
2022-10-11T06:42:42.513Z,6.57
2022-10-11T06:47:44.186Z,6.67
2022-10-11T06:52:47.040Z,6.84
2022-10-11T06:57:48.615Z,6.90
2022-10-11T07:02:50.197Z,6.85
2022-10-11T07:07:51.786Z,7.02
2022-10-11T07:12:53.423Z,6.98
2022-10-11T07:17:55.031Z,6.94
2022-10-11T07:22:56.601Z,7.39
2022-10-11T07:27:58.291Z,7.81
2022-10-11T07:32:59.929Z,8.02
2022-10-11T07:38:01.836Z,8.33
2022-10-11T07:43:03.415Z,8.71
2022-10-11T07:48:05.428Z,8.79
2022-10-11T07:53:08.076Z,9.16
2022-10-11T07:58:11.582Z,9.49
2022-10-11T08:03:14.118Z,9.87
2022-10-11T08:08:16.026Z,10.18
2022-10-11T08:13:17.633Z,10.55
2022-10-11T08:18:19.528Z,10.96
2022-10-11T08:23:21.138Z,11.11
2022-10-11T08:28:22.843Z,11.35
2022-10-11T08:33:26.296Z,11.45
2022-10-11T08:38:27.909Z,11.58
2022-10-11T08:43:36.618Z,11.98
2022-10-11T08:48:42.359Z,12.07
2022-10-11T08:53:54.141Z,12.18
2022-10-11T08:59:13.927Z,12.46
2022-10-11T09:04:17.833Z,12.48
2022-10-11T09:09:53.138Z,12.41
2022-10-11T09:15:17.641Z,12.61
2022-10-11T09:20:40.316Z,12.64
2022-10-11T09:26:07.891Z,12.63
2022-10-11T09:31:11.394Z,12.88
2022-10-11T09:36:41.757Z,12.96
2022-10-11T09:41:53.561Z,13.08
2022-10-11T09:46:56.896Z,13.18
2022-10-11T09:52:02.111Z,12.67
2022-10-11T09:57:03.848Z,12.68
2022-10-11T10:02:14.685Z,12.50
2022-10-11T10:07:16.356Z,12.76
2022-10-11T10:12:31.235Z,12.89
2022-10-11T10:17:33.790Z,13.05
2022-10-11T10:22:37.472Z,13.22
2022-10-11T10:27:39.053Z,13.27
2022-10-11T10:33:07.371Z,13.16
2022-10-11T10:38:33.846Z,13.29
2022-10-11T10:43:39.529Z,13.40
2022-10-11T10:54:46.394Z,13.20
2022-10-11T10:59:53.228Z,13.22
2022-10-11T11:05:12.198Z,13.40
2022-10-11T11:10:21.003Z,13.56
2022-10-11T11:15:38.958Z,13.75
2022-10-11T11:21:18.437Z,13.70
2022-10-11T11:26:45.444Z,13.68
2022-10-11T11:32:23.466Z,13.82
2022-10-11T11:37:33.462Z,13.78
2022-10-11T11:42:54.218Z,13.79
2022-10-11T11:48:04.205Z,13.74
2022-10-11T11:53:19.272Z,13.85
2022-10-11T11:59:03.343Z,14.09
2022-10-11T12:04:26.935Z,14.15
2022-10-11T12:09:30.271Z,14.29
2022-10-11T12:14:34.930Z,14.26
2022-10-11T12:19:38.567Z,14.30
2022-10-11T12:25:00.692Z,14.33
2022-10-11T12:30:02.394Z,14.38
2022-10-11T12:35:28.790Z,14.49
2022-10-11T12:40:37.624Z,14.52
2022-10-11T12:45:39.527Z,14.61
2022-10-11T12:50:47.929Z,14.63
2022-10-11T12:55:59.985Z,14.56
2022-10-11T13:01:01.611Z,14.73
2022-10-11T13:06:20.623Z,14.84
2022-10-11T13:11:30.859Z,14.91
2022-10-11T13:16:49.454Z,14.83
2022-10-11T13:21:55.738Z,14.77
2022-10-11T13:26:58.136Z,14.75
2022-10-11T13:32:14.684Z,14.84
2022-10-11T13:37:19.534Z,14.93
2022-10-11T13:42:27.961Z,14.89
2022-10-11T13:47:32.238Z,14.93
2022-10-11T13:52:34.583Z,15.13
2022-10-11T13:57:47.999Z,14.96
2022-10-11T14:03:00.210Z,15.03
2022-10-11T14:08:06.630Z,15.21
2022-10-11T14:13:41.819Z,14.99
2022-10-11T14:18:49.530Z,15.12
2022-10-11T14:24:00.780Z,15.02
2022-10-11T14:29:06.969Z,14.88
2022-10-11T14:34:15.740Z,15.03
2022-10-11T14:39:21.147Z,15.02
2022-10-11T14:44:23.265Z,15.16
2022-10-11T14:49:27.676Z,15.34
2022-10-11T14:54:31.324Z,15.28
2022-10-11T14:59:37.208Z,15.34
2022-10-11T15:04:38.780Z,15.32
2022-10-11T15:09:40.370Z,15.33
2022-10-11T15:14:41.961Z,15.35
2022-10-11T15:19:43.606Z,15.22
2022-10-11T15:24:49.368Z,15.13
2022-10-11T15:29:53.182Z,15.10
2022-10-11T15:34:54.900Z,15.01
2022-10-11T15:39:56.495Z,15.00
2022-10-11T15:44:58.952Z,14.86
2022-10-11T15:50:00.625Z,14.77
2022-10-11T15:55:02.252Z,14.62
2022-10-11T16:00:04.762Z,14.44
2022-10-11T16:05:06.576Z,14.14
2022-10-11T16:10:08.536Z,13.96
2022-10-11T16:15:10.599Z,13.75
2022-10-11T16:20:12.987Z,13.48
2022-10-11T16:25:14.606Z,13.22
2022-10-11T16:30:18.221Z,12.93
2022-10-11T16:35:20.436Z,12.66
2022-10-11T16:40:22.176Z,12.32
2022-10-11T16:45:23.766Z,12.13
2022-10-11T16:50:25.747Z,11.86
2022-10-11T16:55:27.354Z,11.70
2022-10-11T17:00:29.180Z,11.46
2022-10-11T17:05:30.806Z,11.18
2022-10-11T17:10:39.604Z,10.98
2022-10-11T17:15:41.253Z,10.84
2022-10-11T17:20:43.626Z,10.73
2022-10-11T17:25:46.664Z,10.58
2022-10-11T17:30:58.164Z,10.41
2022-10-11T17:36:00.615Z,10.30
2022-10-11T17:41:04.875Z,10.17
2022-10-11T17:46:07.636Z,10.04
2022-10-11T17:51:12.857Z,9.92
2022-10-11T17:56:18.131Z,9.75
2022-10-11T18:01:22.765Z,9.63
2022-10-11T18:06:30.846Z,9.53
2022-10-11T18:11:33.045Z,9.41
2022-10-11T18:16:36.252Z,9.31
2022-10-11T18:21:38.461Z,9.19
2022-10-11T18:26:40.379Z,9.11
2022-10-11T18:31:42.314Z,8.94
2022-10-11T18:36:44.027Z,8.81
2022-10-11T18:41:45.912Z,8.45
2022-10-11T18:46:48.384Z,8.33
2022-10-11T18:51:50.346Z,8.38
2022-10-11T18:56:52.239Z,8.39
2022-10-11T19:01:56.635Z,8.33
2022-10-11T19:06:58.443Z,8.26
2022-10-11T19:12:00.668Z,8.11
2022-10-11T19:17:02.441Z,8.08
2022-10-11T19:22:05.012Z,7.98
2022-10-11T19:27:06.820Z,7.95
2022-10-11T19:32:11.384Z,7.88
2022-10-11T19:37:13.514Z,7.77
2022-10-11T19:42:15.410Z,7.55
2022-10-11T19:47:17.294Z,7.41
2022-10-11T19:52:18.912Z,7.46
2022-10-11T19:57:20.683Z,7.45
2022-10-11T20:02:22.389Z,7.35
2022-10-11T20:07:24.074Z,7.12
2022-10-11T20:12:29.396Z,7.12
2022-10-11T20:17:50.037Z,7.12
2022-10-11T20:22:53.516Z,7.08
2022-10-11T20:27:55.210Z,7.07
2022-10-11T20:32:59.263Z,7.02
2022-10-11T20:38:00.864Z,6.99
2022-10-11T20:43:02.502Z,6.92
2022-10-11T20:48:04.140Z,6.92
2022-10-11T20:53:05.748Z,6.88
2022-10-11T20:58:07.342Z,6.75
2022-10-11T21:03:09.386Z,6.61
2022-10-11T21:08:11.105Z,6.59
2022-10-11T21:13:12.697Z,6.54
2022-10-11T21:18:14.276Z,6.51
2022-10-11T21:23:18.848Z,6.47
2022-10-11T21:28:20.521Z,6.41
2022-10-11T21:33:22.150Z,6.32
2022-10-11T21:38:23.764Z,6.28
2022-10-11T21:43:25.351Z,6.28
2022-10-11T21:48:29.256Z,6.13
2022-10-11T21:53:30.859Z,6.02
2022-10-11T21:58:32.488Z,6.01
2022-10-11T22:03:34.289Z,5.97
2022-10-11T22:08:36.194Z,5.96
2022-10-11T22:13:38.388Z,5.87
2022-10-11T22:18:41.380Z,5.86
2022-10-11T22:23:46.009Z,5.82
2022-10-11T22:28:48.100Z,5.76
2022-10-11T22:33:56.929Z,5.74
2022-10-11T22:38:59.018Z,5.67
2022-10-11T22:44:00.742Z,5.59
2022-10-11T22:49:02.336Z,5.47
2022-10-11T22:54:04.133Z,5.42
2022-10-11T22:59:05.807Z,5.39
2022-10-11T23:04:07.464Z,5.33
2022-10-11T23:09:09.111Z,5.30
2022-10-11T23:14:11.088Z,5.07
2022-10-11T23:19:12.899Z,4.95
2022-10-11T23:24:14.540Z,4.99
2022-10-11T23:29:16.150Z,4.98
2022-10-11T23:34:17.752Z,4.92
2022-10-11T23:39:19.358Z,4.84
2022-10-11T23:44:21.026Z,4.82
2022-10-11T23:49:22.716Z,4.80
2022-10-11T23:54:24.284Z,4.74
2022-10-11T23:59:25.860Z,4.62
